createdAt,value
2022-10-30T00:00:59.665Z,0.00
2022-10-30T00:01:59.804Z,0.00
2022-10-30T00:03:03.173Z,0.00
2022-10-30T00:03:59.635Z,0.00
2022-10-30T00:04:59.605Z,0.00
2022-10-30T00:05:59.600Z,0.00
2022-10-30T00:06:59.583Z,0.00
2022-10-30T00:07:59.919Z,0.00
2022-10-30T00:08:59.567Z,0.00
2022-10-30T00:09:59.563Z,0.00
2022-10-30T00:10:59.537Z,0.00
2022-10-30T00:11:59.535Z,0.00
2022-10-30T00:12:59.543Z,0.00
2022-10-30T00:13:59.502Z,0.00
2022-10-30T00:14:59.516Z,0.00
2022-10-30T00:15:59.494Z,0.00
2022-10-30T00:16:59.474Z,0.00
2022-10-30T00:18:02.479Z,0.00
2022-10-30T00:18:59.503Z,0.00
2022-10-30T00:19:59.476Z,0.00
2022-10-30T00:20:59.438Z,0.00
2022-10-30T00:22:32.276Z,0.00
2022-10-30T00:23:32.276Z,0.00
2022-10-30T00:24:32.263Z,0.00
2022-10-30T00:25:32.230Z,0.00
2022-10-30T00:26:32.236Z,0.00
2022-10-30T00:27:32.211Z,0.00
2022-10-30T00:28:32.201Z,0.00
2022-10-30T00:29:32.182Z,0.00
2022-10-30T00:30:32.171Z,0.00
2022-10-30T00:31:32.173Z,0.00
2022-10-30T00:32:32.155Z,0.00
2022-10-30T00:33:32.185Z,0.00
2022-10-30T00:34:32.143Z,0.00
2022-10-30T00:35:35.229Z,0.00
2022-10-30T00:36:32.140Z,0.00
2022-10-30T00:37:32.114Z,0.00
2022-10-30T00:38:32.091Z,0.00
2022-10-30T00:39:32.093Z,0.00
2022-10-30T00:40:32.076Z,0.00
2022-10-30T00:41:32.063Z,0.00
2022-10-30T00:42:32.072Z,0.00
2022-10-30T00:43:32.081Z,0.00
2022-10-30T00:44:32.045Z,0.00
2022-10-30T00:45:32.026Z,0.00
2022-10-30T00:46:32.024Z,0.00
2022-10-30T00:47:31.996Z,0.00
2022-10-30T00:48:32.004Z,0.00
2022-10-30T00:49:31.982Z,0.00
2022-10-30T00:50:34.967Z,0.00
2022-10-30T00:51:31.990Z,0.00
2022-10-30T00:52:31.959Z,0.00
2022-10-30T00:53:31.956Z,0.00
2022-10-30T00:54:31.926Z,0.00
2022-10-30T00:55:31.917Z,0.00
2022-10-30T00:56:31.897Z,0.00
2022-10-30T00:57:31.896Z,0.00
2022-10-30T00:58:31.908Z,0.00
2022-10-30T00:59:31.876Z,0.00
2022-10-30T01:00:31.868Z,0.00
2022-10-30T01:01:32.000Z,0.00
2022-10-30T01:02:32.096Z,0.00
2022-10-30T01:03:32.008Z,0.00
2022-10-30T01:04:31.828Z,0.00
2022-10-30T01:05:34.808Z,0.00
2022-10-30T01:06:31.817Z,0.00
2022-10-30T01:07:31.789Z,0.00
2022-10-30T01:08:31.844Z,0.00
2022-10-30T01:09:31.770Z,0.00
2022-10-30T01:10:31.748Z,0.00
2022-10-30T01:11:31.778Z,0.00
2022-10-30T01:12:31.740Z,0.00
2022-10-30T01:13:31.733Z,0.00
2022-10-30T01:14:31.752Z,0.00
2022-10-30T01:15:31.711Z,0.00
2022-10-30T01:16:31.692Z,0.00
2022-10-30T01:17:31.684Z,0.00
2022-10-30T01:18:31.693Z,0.00
2022-10-30T01:19:31.670Z,0.00
2022-10-30T01:20:34.661Z,0.00
2022-10-30T01:21:31.666Z,0.00
2022-10-30T01:22:31.641Z,0.00
2022-10-30T01:23:31.721Z,0.00
2022-10-30T01:24:31.633Z,0.00
2022-10-30T01:25:31.602Z,0.00
2022-10-30T01:26:31.601Z,0.00
2022-10-30T01:27:31.586Z,0.00
2022-10-30T01:28:31.585Z,0.00
2022-10-30T01:29:31.591Z,0.00
2022-10-30T01:30:31.561Z,0.00
2022-10-30T01:31:31.547Z,0.00
2022-10-30T01:32:31.534Z,0.00
2022-10-30T01:33:31.530Z,0.00
2022-10-30T01:34:31.651Z,0.00
2022-10-30T01:35:34.504Z,0.00
2022-10-30T01:36:31.506Z,0.00
2022-10-30T01:37:31.484Z,0.00
2022-10-30T01:38:31.476Z,0.00
2022-10-30T01:39:31.467Z,0.00
2022-10-30T01:40:31.476Z,0.00
2022-10-30T01:41:31.447Z,0.00
2022-10-30T01:42:31.428Z,0.00
2022-10-30T01:43:31.427Z,0.00
2022-10-30T01:44:31.418Z,0.00
2022-10-30T01:45:31.420Z,0.00
2022-10-30T01:46:31.456Z,0.00
2022-10-30T01:47:31.377Z,0.00
2022-10-30T01:48:31.366Z,0.00
2022-10-30T01:49:31.359Z,0.00
2022-10-30T01:50:34.348Z,0.00
2022-10-30T01:51:31.353Z,0.00
2022-10-30T01:52:31.336Z,0.00
2022-10-30T01:53:31.336Z,0.00
2022-10-30T01:54:31.312Z,0.00
2022-10-30T01:55:31.308Z,0.00
2022-10-30T01:56:31.286Z,0.00
2022-10-30T01:57:31.281Z,0.00
2022-10-30T01:58:31.281Z,0.00
2022-10-30T01:59:31.285Z,0.00
2022-10-30T02:00:31.269Z,0.00
2022-10-30T02:01:31.440Z,0.00
2022-10-30T02:02:31.363Z,0.00
2022-10-30T02:03:32.159Z,0.00
2022-10-30T02:04:31.236Z,0.00
2022-10-30T02:05:34.202Z,0.00
2022-10-30T02:06:31.202Z,0.00
2022-10-30T02:07:31.171Z,0.00
2022-10-30T02:08:31.171Z,0.00
2022-10-30T02:09:31.157Z,0.00
2022-10-30T02:10:31.142Z,0.00
2022-10-30T02:11:31.136Z,0.00
2022-10-30T02:12:31.123Z,0.00
2022-10-30T02:13:31.114Z,0.00
2022-10-30T02:14:31.111Z,0.00
2022-10-30T02:15:31.116Z,0.00
2022-10-30T02:16:31.086Z,0.00
2022-10-30T02:17:31.075Z,0.00
2022-10-30T02:18:31.107Z,0.00
2022-10-30T02:19:31.043Z,0.00
2022-10-30T02:20:34.047Z,0.00
2022-10-30T02:21:31.049Z,0.00
2022-10-30T02:22:31.103Z,0.00
2022-10-30T02:23:31.019Z,0.00
2022-10-30T02:24:30.996Z,0.00
2022-10-30T02:25:31.017Z,0.00
2022-10-30T02:26:30.976Z,0.00
2022-10-30T02:27:30.990Z,0.00
2022-10-30T02:28:30.958Z,0.00
2022-10-30T02:29:30.949Z,0.00
2022-10-30T02:30:30.929Z,0.00
2022-10-30T02:31:30.924Z,0.00
2022-10-30T02:32:30.937Z,0.00
2022-10-30T02:33:30.899Z,0.00
2022-10-30T02:34:30.918Z,0.00
2022-10-30T02:35:33.890Z,0.00
2022-10-30T02:36:30.898Z,0.00
2022-10-30T02:37:30.867Z,0.00
2022-10-30T02:38:30.859Z,0.00
2022-10-30T02:39:30.865Z,0.00
2022-10-30T02:40:30.835Z,0.00
2022-10-30T02:41:30.824Z,0.00
2022-10-30T02:42:30.827Z,0.00
2022-10-30T02:43:30.811Z,0.00
2022-10-30T02:44:30.791Z,0.00
2022-10-30T02:45:30.782Z,0.00
2022-10-30T02:46:30.784Z,0.00
2022-10-30T02:47:30.770Z,0.00
2022-10-30T02:48:30.759Z,0.00
2022-10-30T02:49:30.762Z,0.00
2022-10-30T02:50:33.738Z,0.00
2022-10-30T02:51:30.742Z,0.00
2022-10-30T02:52:30.710Z,0.00
2022-10-30T02:53:30.699Z,0.00
2022-10-30T02:54:30.803Z,0.00
2022-10-30T02:55:30.681Z,0.00
2022-10-30T02:56:30.662Z,0.00
2022-10-30T02:57:30.672Z,0.00
2022-10-30T02:58:30.765Z,0.00
2022-10-30T02:59:30.652Z,0.00
2022-10-30T03:00:30.632Z,0.00
2022-10-30T03:01:30.733Z,0.00
2022-10-30T03:02:30.627Z,0.00
2022-10-30T03:03:30.588Z,0.00
2022-10-30T03:04:30.590Z,0.00
2022-10-30T03:05:33.676Z,0.00
2022-10-30T03:06:30.587Z,0.00
2022-10-30T03:07:30.554Z,0.00
2022-10-30T03:08:30.547Z,0.00
2022-10-30T03:09:30.555Z,0.00
2022-10-30T03:10:30.523Z,0.00
2022-10-30T03:11:31.844Z,0.00
2022-10-30T03:12:30.507Z,0.00
2022-10-30T03:13:30.496Z,0.00
2022-10-30T03:14:30.480Z,0.00
2022-10-30T03:15:30.487Z,0.00
2022-10-30T03:16:30.468Z,0.00
2022-10-30T03:17:30.565Z,0.00
2022-10-30T03:18:30.448Z,0.00
2022-10-30T03:19:31.492Z,0.00
2022-10-30T03:20:33.429Z,0.00
2022-10-30T03:21:30.436Z,0.00
2022-10-30T03:22:30.410Z,0.00
2022-10-30T03:23:30.414Z,0.00
2022-10-30T03:24:30.410Z,0.00
2022-10-30T03:25:30.373Z,0.00
2022-10-30T03:26:30.348Z,0.00
2022-10-30T03:27:30.350Z,0.00
2022-10-30T03:28:30.339Z,0.00
2022-10-30T03:29:30.359Z,0.00
2022-10-30T03:30:30.307Z,0.00
2022-10-30T03:31:30.341Z,0.00
2022-10-30T03:32:30.296Z,0.00
2022-10-30T03:33:30.291Z,0.00
2022-10-30T03:34:30.275Z,0.00
2022-10-30T03:35:33.278Z,0.00
2022-10-30T03:36:30.281Z,0.00
2022-10-30T03:37:30.244Z,0.00
2022-10-30T03:38:30.243Z,0.00
2022-10-30T03:39:30.267Z,0.00
2022-10-30T03:40:30.220Z,0.00
2022-10-30T03:41:30.239Z,0.00
2022-10-30T03:42:30.198Z,0.00
2022-10-30T03:43:30.189Z,0.00
2022-10-30T03:44:30.183Z,0.00
2022-10-30T03:45:30.167Z,0.00
2022-10-30T03:46:30.197Z,0.00
2022-10-30T03:47:30.158Z,0.00
2022-10-30T03:48:30.135Z,0.00
2022-10-30T03:49:30.125Z,0.00
2022-10-30T03:50:33.114Z,0.00
2022-10-30T03:51:30.115Z,0.00
2022-10-30T03:52:30.095Z,0.00
2022-10-30T03:53:30.084Z,0.00
2022-10-30T03:54:32.190Z,0.00
2022-10-30T03:55:30.063Z,0.00
2022-10-30T03:56:30.055Z,0.00
2022-10-30T03:57:30.045Z,0.00
2022-10-30T03:58:30.037Z,0.00
2022-10-30T03:59:30.033Z,0.00
2022-10-30T04:00:30.018Z,0.00
2022-10-30T04:01:35.283Z,0.00
2022-10-30T04:02:29.998Z,0.00
2022-10-30T04:03:29.977Z,0.00
2022-10-30T04:04:29.978Z,0.00
2022-10-30T04:05:32.967Z,0.00
2022-10-30T04:06:30.047Z,0.00
2022-10-30T04:07:29.958Z,0.00
2022-10-30T04:08:29.929Z,0.00
2022-10-30T04:09:29.921Z,0.00
2022-10-30T04:10:29.908Z,0.00
2022-10-30T04:11:29.990Z,0.00
2022-10-30T04:12:29.881Z,0.00
2022-10-30T04:13:29.878Z,0.00
2022-10-30T04:14:29.925Z,0.00
2022-10-30T04:15:29.858Z,0.00
2022-10-30T04:16:29.852Z,0.00
2022-10-30T04:17:29.841Z,0.00
2022-10-30T04:18:29.831Z,0.00
2022-10-30T04:19:29.869Z,0.00
2022-10-30T04:20:32.808Z,0.00
2022-10-30T04:21:29.901Z,0.00
2022-10-30T04:22:29.785Z,0.00
2022-10-30T04:23:29.792Z,0.00
2022-10-30T04:24:29.761Z,0.00
2022-10-30T04:25:29.765Z,0.00
2022-10-30T04:26:29.851Z,0.00
2022-10-30T04:27:29.744Z,0.00
2022-10-30T04:28:29.755Z,0.00
2022-10-30T04:29:29.722Z,0.00
2022-10-30T04:30:29.695Z,0.00
2022-10-30T04:31:29.692Z,0.00
2022-10-30T04:32:29.709Z,0.00
2022-10-30T04:33:29.692Z,0.00
2022-10-30T04:34:29.666Z,0.00
2022-10-30T04:35:32.646Z,0.00
2022-10-30T04:36:29.673Z,0.00
2022-10-30T04:37:29.635Z,0.00
2022-10-30T04:38:29.623Z,0.00
2022-10-30T04:39:29.614Z,0.00
2022-10-30T04:40:29.604Z,0.00
2022-10-30T04:41:29.617Z,0.00
2022-10-30T04:42:29.590Z,0.00
2022-10-30T04:43:29.608Z,0.00
2022-10-30T04:44:29.565Z,0.00
2022-10-30T04:45:29.556Z,0.00
2022-10-30T04:46:29.549Z,0.00
2022-10-30T04:47:29.587Z,0.00
2022-10-30T04:48:29.519Z,0.00
2022-10-30T04:49:29.508Z,0.00
2022-10-30T04:50:32.496Z,0.00
2022-10-30T04:51:29.679Z,0.00
2022-10-30T04:52:29.478Z,0.00
2022-10-30T04:53:29.468Z,0.00
2022-10-30T04:54:29.457Z,0.00
2022-10-30T04:55:29.460Z,0.00
2022-10-30T04:56:29.460Z,0.00
2022-10-30T04:57:29.428Z,0.00
2022-10-30T04:58:29.430Z,0.00
2022-10-30T04:59:29.403Z,0.00
2022-10-30T05:00:29.388Z,0.00
2022-10-30T05:01:29.465Z,0.00
2022-10-30T05:02:29.531Z,0.00
2022-10-30T05:03:29.694Z,0.00
2022-10-30T05:04:29.351Z,0.00
2022-10-30T05:05:32.346Z,0.00
2022-10-30T05:06:29.354Z,0.00
2022-10-30T05:07:29.322Z,0.00
2022-10-30T05:08:29.310Z,0.00
2022-10-30T05:09:29.300Z,0.00
2022-10-30T05:10:29.296Z,0.00
2022-10-30T05:11:29.303Z,0.00
2022-10-30T05:12:29.264Z,0.00
2022-10-30T05:13:29.267Z,0.00
2022-10-30T05:14:29.251Z,0.00
2022-10-30T05:15:29.244Z,0.00
2022-10-30T05:16:29.273Z,0.00
2022-10-30T05:18:29.213Z,0.00
2022-10-30T05:19:29.195Z,0.00
2022-10-30T05:20:32.185Z,0.00
2022-10-30T05:21:29.194Z,0.00
2022-10-30T05:22:29.170Z,0.00
2022-10-30T05:23:29.150Z,0.00
2022-10-30T05:24:29.141Z,0.00
2022-10-30T05:25:29.135Z,0.00
2022-10-30T05:26:29.127Z,0.00
2022-10-30T05:27:29.146Z,0.00
2022-10-30T05:28:29.119Z,0.00
2022-10-30T05:29:29.096Z,0.00
2022-10-30T05:30:29.085Z,0.00
2022-10-30T05:31:29.078Z,0.00
2022-10-30T05:32:29.044Z,1.00
2022-10-30T05:33:29.124Z,0.00
2022-10-30T05:34:29.050Z,0.00
2022-10-30T05:35:32.040Z,0.00
2022-10-30T05:36:29.048Z,0.00
2022-10-30T05:37:29.021Z,0.00
2022-10-30T05:38:28.969Z,1.00
2022-10-30T05:39:29.002Z,0.00
2022-10-30T05:40:28.947Z,2.00
2022-10-30T05:41:28.917Z,2.00
2022-10-30T05:42:28.914Z,3.00
2022-10-30T05:43:28.899Z,6.00
2022-10-30T05:44:54.756Z,5.00
2022-10-30T05:45:29.886Z,5.00
2022-10-30T05:46:28.873Z,6.00
2022-10-30T05:47:28.872Z,7.00
2022-10-30T05:48:28.848Z,9.00
2022-10-30T05:49:28.842Z,11.00
2022-10-30T05:50:31.822Z,14.00
2022-10-30T05:51:28.839Z,17.00
2022-10-30T05:52:28.802Z,17.00
2022-10-30T05:53:28.799Z,25.00
2022-10-30T05:54:28.800Z,23.00
2022-10-30T05:55:28.770Z,23.00
2022-10-30T05:56:28.766Z,26.00
2022-10-30T05:57:28.750Z,33.00
2022-10-30T05:58:28.753Z,39.00
2022-10-30T05:59:28.760Z,52.00
2022-10-30T06:00:28.721Z,58.00
2022-10-30T06:01:28.824Z,67.00
2022-10-30T06:02:28.751Z,70.00
2022-10-30T06:03:28.692Z,78.00
2022-10-30T06:04:28.684Z,102.00
2022-10-30T06:05:31.671Z,129.00
2022-10-30T06:06:28.684Z,142.00
2022-10-30T06:07:28.660Z,144.00
2022-10-30T06:08:28.643Z,150.00
2022-10-30T06:09:28.624Z,177.00
2022-10-30T06:10:28.623Z,214.00
2022-10-30T06:11:28.614Z,244.00
2022-10-30T06:12:28.635Z,261.00
2022-10-30T06:13:28.593Z,274.00
2022-10-30T06:14:28.585Z,302.00
2022-10-30T06:15:28.573Z,306.00
2022-10-30T06:16:28.575Z,312.00
2022-10-30T06:17:28.574Z,346.00
2022-10-30T06:18:28.543Z,371.00
2022-10-30T06:19:28.534Z,397.00
2022-10-30T06:20:31.517Z,432.00
2022-10-30T06:21:28.539Z,469.00
2022-10-30T06:22:28.516Z,516.00
2022-10-30T06:23:28.530Z,552.00
2022-10-30T06:24:28.525Z,578.00
2022-10-30T06:25:28.477Z,616.00
2022-10-30T06:26:29.463Z,647.00
2022-10-30T06:27:28.570Z,684.00
2022-10-30T06:28:28.437Z,712.00
2022-10-30T06:29:28.439Z,747.00
2022-10-30T06:30:28.418Z,779.00
2022-10-30T06:31:28.416Z,805.00
2022-10-30T06:32:28.400Z,833.00
2022-10-30T06:33:28.380Z,869.00
2022-10-30T06:34:28.378Z,895.00
2022-10-30T06:35:31.377Z,925.00
2022-10-30T06:36:28.368Z,967.00
2022-10-30T06:37:28.338Z,999.00
2022-10-30T06:38:28.432Z,1046.00
2022-10-30T06:39:28.325Z,1080.00
2022-10-30T06:40:28.340Z,1120.00
2022-10-30T06:41:30.441Z,1160.00
2022-10-30T06:42:28.290Z,1210.00
2022-10-30T06:43:28.284Z,1257.00
2022-10-30T06:44:28.273Z,1300.00
2022-10-30T06:45:28.287Z,1340.00
2022-10-30T06:46:32.472Z,1391.00
2022-10-30T06:47:28.243Z,1442.00
2022-10-30T06:48:28.252Z,1480.00
2022-10-30T06:49:28.222Z,1537.00
2022-10-30T06:50:31.214Z,1584.00
2022-10-30T06:51:28.215Z,1623.00
2022-10-30T06:52:28.212Z,1676.00
2022-10-30T06:53:28.202Z,1729.00
2022-10-30T06:54:28.172Z,1786.00
2022-10-30T06:55:28.166Z,1831.00
2022-10-30T06:56:28.151Z,1884.00
2022-10-30T06:57:28.143Z,1926.00
2022-10-30T06:58:28.234Z,1984.00
2022-10-30T06:59:28.124Z,2036.00
2022-10-30T07:00:28.133Z,2094.00
2022-10-30T07:01:28.144Z,2151.00
2022-10-30T07:02:28.211Z,2208.00
2022-10-30T07:03:28.103Z,2259.00
2022-10-30T07:04:28.065Z,2329.00
2022-10-30T07:05:31.056Z,2399.00
2022-10-30T07:06:28.068Z,2462.00
2022-10-30T07:07:28.048Z,2521.00
2022-10-30T07:08:28.028Z,2574.00
2022-10-30T07:09:28.017Z,2626.00
2022-10-30T07:10:28.000Z,2677.00
2022-10-30T07:11:28.095Z,2737.00
2022-10-30T07:12:27.975Z,2789.00
2022-10-30T07:13:27.998Z,2857.00
2022-10-30T07:14:27.970Z,2911.00
2022-10-30T07:15:28.028Z,2962.00
2022-10-30T07:16:27.979Z,3010.00
2022-10-30T07:17:27.941Z,3054.00
2022-10-30T07:18:27.918Z,3111.00
2022-10-30T07:19:27.939Z,3169.00
2022-10-30T07:20:30.902Z,3228.00
2022-10-30T07:21:27.937Z,3273.00
2022-10-30T07:22:27.890Z,3322.00
2022-10-30T07:23:27.883Z,3370.00
2022-10-30T07:24:27.860Z,3407.00
2022-10-30T07:25:27.858Z,3456.00
2022-10-30T07:26:27.939Z,3507.00
2022-10-30T07:27:27.831Z,3547.00
2022-10-30T07:28:27.820Z,3578.00
2022-10-30T07:29:27.820Z,3624.00
2022-10-30T07:30:28.027Z,3645.00
2022-10-30T07:31:41.559Z,3688.00
2022-10-30T07:32:28.771Z,3721.00
2022-10-30T07:33:27.774Z,3744.00
2022-10-30T07:34:27.766Z,3777.00
2022-10-30T07:35:30.752Z,3804.00
2022-10-30T07:36:27.763Z,3833.00
2022-10-30T07:37:27.732Z,3847.00
2022-10-30T07:38:27.720Z,3871.00
2022-10-30T07:39:27.704Z,3904.00
2022-10-30T07:40:27.757Z,3924.00
2022-10-30T07:41:27.681Z,3943.00
2022-10-30T07:42:27.723Z,3964.00
2022-10-30T07:43:27.664Z,3999.00
2022-10-30T07:44:27.662Z,4018.00
2022-10-30T07:45:27.646Z,4051.00
2022-10-30T07:46:27.631Z,4100.00
2022-10-30T07:47:27.625Z,4147.00
2022-10-30T07:48:27.619Z,4187.00
2022-10-30T07:49:27.637Z,4329.00
2022-10-30T07:50:30.597Z,4356.00
2022-10-30T07:51:27.604Z,4418.00
2022-10-30T07:52:27.585Z,4417.00
2022-10-30T07:53:27.606Z,4494.00
2022-10-30T07:54:27.554Z,4464.00
2022-10-30T07:55:27.562Z,4277.00
2022-10-30T07:56:27.536Z,4569.00
2022-10-30T07:57:27.528Z,4400.00
2022-10-30T07:58:27.515Z,5955.00
2022-10-30T07:59:27.505Z,6077.00
2022-10-30T08:00:27.606Z,6510.00
2022-10-30T08:01:27.766Z,8155.00
2022-10-30T08:02:27.602Z,6381.00
2022-10-30T08:03:27.465Z,5925.00
2022-10-30T08:04:27.448Z,9445.00
2022-10-30T08:05:30.522Z,11453.00
2022-10-30T08:06:27.611Z,9395.00
2022-10-30T08:07:27.412Z,8715.00
2022-10-30T08:08:27.408Z,5492.00
2022-10-30T08:09:27.404Z,7734.00
2022-10-30T08:10:27.508Z,6316.00
2022-10-30T08:11:27.387Z,5625.00
2022-10-30T08:12:27.400Z,5531.00
2022-10-30T08:13:27.360Z,6174.00
2022-10-30T08:14:27.356Z,6277.00
2022-10-30T08:15:27.340Z,5714.00
2022-10-30T08:16:27.338Z,5625.00
2022-10-30T08:17:27.319Z,5559.00
2022-10-30T08:18:27.303Z,5245.00
2022-10-30T08:19:27.301Z,6683.00
2022-10-30T08:20:30.296Z,6180.00
2022-10-30T08:21:27.290Z,5971.00
2022-10-30T08:22:27.279Z,4839.00
2022-10-30T08:23:27.260Z,3680.00
2022-10-30T08:24:27.242Z,3791.00
2022-10-30T08:25:27.223Z,8695.00
2022-10-30T08:26:27.235Z,9386.00
2022-10-30T08:27:27.231Z,8718.00
2022-10-30T08:28:31.577Z,8152.00
2022-10-30T08:29:27.194Z,5239.00
2022-10-30T08:30:27.225Z,7667.00
2022-10-30T08:31:27.203Z,5126.00
2022-10-30T08:32:27.165Z,12146.00
2022-10-30T08:33:27.168Z,12396.00
2022-10-30T08:34:27.133Z,9761.00
2022-10-30T08:35:30.187Z,10412.00
2022-10-30T08:36:27.125Z,10401.00
2022-10-30T08:37:27.118Z,9800.00
2022-10-30T08:38:27.105Z,9697.00
2022-10-30T08:39:27.085Z,7368.00
2022-10-30T08:40:27.085Z,10784.00
2022-10-30T08:41:27.068Z,11752.00
2022-10-30T08:42:27.090Z,9892.00
2022-10-30T08:43:27.046Z,9680.00
2022-10-30T08:44:27.040Z,9948.00
2022-10-30T08:45:30.842Z,9186.00
2022-10-30T08:46:27.015Z,8385.00
2022-10-30T08:47:27.004Z,7851.00
2022-10-30T08:48:26.998Z,6874.00
2022-10-30T08:49:26.978Z,7533.00
2022-10-30T08:50:29.987Z,9142.00
2022-10-30T08:51:26.977Z,10025.00
2022-10-30T08:52:26.950Z,9142.00
2022-10-30T08:53:26.960Z,12628.00
2022-10-30T08:54:26.930Z,12615.00
2022-10-30T08:55:26.920Z,11208.00
2022-10-30T08:56:26.930Z,11264.00
2022-10-30T08:57:26.902Z,13844.00
2022-10-30T08:58:26.902Z,9641.00
2022-10-30T08:59:26.882Z,11041.00
2022-10-30T09:00:26.990Z,11592.00
2022-10-30T09:01:27.048Z,10671.00
2022-10-30T09:02:26.969Z,11126.00
2022-10-30T09:03:26.842Z,9754.00
2022-10-30T09:04:26.835Z,8181.00
2022-10-30T09:05:29.850Z,9552.00
2022-10-30T09:06:26.827Z,11187.00
2022-10-30T09:07:26.791Z,11173.00
2022-10-30T09:08:26.863Z,10566.00
2022-10-30T09:09:26.784Z,10107.00
2022-10-30T09:10:26.780Z,12087.00
2022-10-30T09:11:26.755Z,11087.00
2022-10-30T09:12:26.752Z,10043.00
2022-10-30T09:13:26.785Z,10095.00
2022-10-30T09:14:26.734Z,9540.00
2022-10-30T09:15:26.729Z,8222.00
2022-10-30T09:16:26.704Z,8352.00
2022-10-30T09:17:26.704Z,7562.00
2022-10-30T09:18:26.694Z,9934.00
2022-10-30T09:19:26.725Z,8217.00
2022-10-30T09:20:29.670Z,8556.00
2022-10-30T09:21:26.667Z,8401.00
2022-10-30T09:22:26.644Z,8916.00
2022-10-30T09:23:26.653Z,10229.00
2022-10-30T09:24:26.619Z,9561.00
2022-10-30T09:25:26.710Z,10358.00
2022-10-30T09:26:26.607Z,13597.00
2022-10-30T09:27:26.589Z,10729.00
2022-10-30T09:28:26.575Z,8174.00
2022-10-30T09:29:26.568Z,8995.00
2022-10-30T09:30:26.595Z,11633.00
2022-10-30T09:31:26.552Z,15480.00
2022-10-30T09:32:26.542Z,9785.00
2022-10-30T09:33:26.527Z,4550.00
2022-10-30T09:35:29.532Z,5080.00
2022-10-30T09:36:26.513Z,15558.00
2022-10-30T09:37:26.489Z,14712.00
2022-10-30T09:38:26.473Z,9502.00
2022-10-30T09:39:26.460Z,8155.00
2022-10-30T09:40:26.459Z,9462.00
2022-10-30T09:41:26.454Z,8072.00
2022-10-30T09:42:26.432Z,8135.00
2022-10-30T09:43:26.437Z,8184.00
2022-10-30T09:44:26.410Z,7284.00
2022-10-30T09:45:30.357Z,7616.00
2022-10-30T09:46:26.393Z,7052.00
2022-10-30T09:47:26.391Z,5999.00
2022-10-30T09:48:26.366Z,6495.00
2022-10-30T09:49:26.367Z,7560.00
2022-10-30T09:50:29.360Z,8064.00
2022-10-30T09:51:26.467Z,9176.00
2022-10-30T09:52:26.340Z,8793.00
2022-10-30T09:53:26.326Z,8095.00
2022-10-30T09:54:26.338Z,6462.00
2022-10-30T09:55:26.308Z,5222.00
2022-10-30T09:56:26.328Z,10023.00
2022-10-30T09:57:26.286Z,9000.00
2022-10-30T09:58:26.285Z,9328.00
2022-10-30T09:59:26.307Z,17396.00
2022-10-30T10:00:26.408Z,11219.00
2022-10-30T10:01:26.458Z,10321.00
2022-10-30T10:02:26.413Z,11353.00
2022-10-30T10:03:26.230Z,10037.00
2022-10-30T10:04:27.013Z,8003.00
2022-10-30T10:05:29.473Z,7968.00
2022-10-30T10:06:26.210Z,7622.00
2022-10-30T10:07:26.187Z,7507.00
2022-10-30T10:08:26.238Z,7075.00
2022-10-30T10:09:26.167Z,7036.00
2022-10-30T10:10:26.169Z,7422.00
2022-10-30T10:11:26.144Z,7451.00
2022-10-30T10:12:26.140Z,6272.00
2022-10-30T10:13:26.150Z,6148.00
2022-10-30T10:14:26.115Z,7275.00
2022-10-30T10:15:26.104Z,7916.00
2022-10-30T10:16:26.091Z,7584.00
2022-10-30T10:17:26.082Z,8228.00
2022-10-30T10:18:26.140Z,7985.00
2022-10-30T10:19:26.062Z,6778.00
2022-10-30T10:20:29.054Z,6321.00
2022-10-30T10:21:26.052Z,5363.00
2022-10-30T10:22:26.034Z,8056.00
2022-10-30T10:23:26.044Z,7352.00
2022-10-30T10:24:26.007Z,9389.00
2022-10-30T10:25:25.996Z,9336.00
2022-10-30T10:26:25.990Z,8345.00
2022-10-30T10:27:25.981Z,8290.00
2022-10-30T10:28:25.976Z,7372.00
2022-10-30T10:29:26.989Z,7074.00
2022-10-30T10:30:25.948Z,6608.00
2022-10-30T10:31:25.936Z,8540.00
2022-10-30T10:32:25.922Z,11599.00
2022-10-30T10:33:25.916Z,10489.00
2022-10-30T10:34:25.924Z,8283.00
2022-10-30T10:35:28.895Z,8774.00
2022-10-30T10:36:25.898Z,7581.00
2022-10-30T10:37:25.868Z,8675.00
2022-10-30T10:38:25.860Z,14976.00
2022-10-30T10:39:25.854Z,13076.00
2022-10-30T10:40:25.877Z,10244.00
2022-10-30T10:41:25.828Z,10064.00
2022-10-30T10:42:25.827Z,11339.00
2022-10-30T10:43:25.809Z,4824.00
2022-10-30T10:44:25.798Z,13714.00
2022-10-30T10:45:25.795Z,20633.00
2022-10-30T10:46:25.778Z,28766.00
2022-10-30T10:47:25.774Z,24971.00
2022-10-30T10:48:25.754Z,22102.00
2022-10-30T10:49:25.742Z,16433.00
2022-10-30T10:50:28.749Z,14676.00
2022-10-30T10:51:25.733Z,10442.00
2022-10-30T10:52:25.845Z,11461.00
2022-10-30T10:53:30.582Z,9180.00
2022-10-30T10:54:25.710Z,8042.00
2022-10-30T10:55:25.684Z,7681.00
2022-10-30T10:56:25.694Z,8632.00
2022-10-30T10:57:25.651Z,9102.00
2022-10-30T10:58:25.645Z,11113.00
2022-10-30T10:59:25.637Z,11138.00
2022-10-30T11:00:25.670Z,10481.00
2022-10-30T11:01:25.737Z,24020.00
2022-10-30T11:02:25.719Z,16456.00
2022-10-30T11:03:25.945Z,23638.00
2022-10-30T11:04:25.615Z,22041.00
2022-10-30T11:05:28.568Z,16030.00
2022-10-30T11:06:25.597Z,17142.00
2022-10-30T11:07:25.558Z,18317.00
2022-10-30T11:08:25.529Z,14743.00
2022-10-30T11:09:25.526Z,16885.00
2022-10-30T11:10:25.516Z,24116.00
2022-10-30T11:11:25.507Z,15670.00
2022-10-30T11:12:25.516Z,17175.00
2022-10-30T11:13:25.483Z,20148.00
2022-10-30T11:14:25.475Z,19378.00
2022-10-30T11:15:25.479Z,15373.00
2022-10-30T11:16:25.456Z,13593.00
2022-10-30T11:17:25.469Z,12284.00
2022-10-30T11:18:25.434Z,11415.00
2022-10-30T11:20:28.411Z,12228.00
2022-10-30T11:21:25.412Z,12430.00
2022-10-30T11:22:25.432Z,12276.00
2022-10-30T11:23:25.384Z,12206.00
2022-10-30T11:24:25.377Z,10575.00
2022-10-30T11:25:28.463Z,10272.00
2022-10-30T11:26:25.340Z,11827.00
2022-10-30T11:27:25.333Z,10988.00
2022-10-30T11:28:25.356Z,13622.00
2022-10-30T11:29:25.314Z,12611.00
2022-10-30T11:30:25.306Z,11069.00
2022-10-30T11:31:25.305Z,12665.00
2022-10-30T11:32:25.276Z,15616.00
2022-10-30T11:33:25.317Z,14632.00
2022-10-30T11:34:25.267Z,10662.00
2022-10-30T11:35:28.252Z,10826.00
2022-10-30T11:36:25.257Z,9172.00
2022-10-30T11:37:25.231Z,11617.00
2022-10-30T11:38:25.223Z,13589.00
2022-10-30T11:39:25.215Z,11919.00
2022-10-30T11:40:25.195Z,11297.00
2022-10-30T11:41:25.189Z,10866.00
2022-10-30T11:42:25.189Z,10540.00
2022-10-30T11:43:25.169Z,10635.00
2022-10-30T11:44:25.172Z,10255.00
2022-10-30T11:45:25.151Z,9992.00
2022-10-30T11:46:25.170Z,9114.00
2022-10-30T11:47:25.225Z,10912.00
2022-10-30T11:48:26.005Z,10218.00
2022-10-30T11:49:25.130Z,9511.00
2022-10-30T11:50:28.090Z,9320.00
2022-10-30T11:51:25.166Z,8934.00
2022-10-30T11:52:25.071Z,9456.00
2022-10-30T11:53:25.064Z,10214.00
2022-10-30T11:54:25.084Z,10226.00
2022-10-30T11:55:25.050Z,9888.00
2022-10-30T11:56:25.042Z,10445.00
2022-10-30T11:57:25.017Z,9782.00
2022-10-30T11:58:25.015Z,10259.00
2022-10-30T11:59:25.014Z,10716.00
2022-10-30T12:00:24.984Z,10590.00
2022-10-30T12:01:25.062Z,10335.00
2022-10-30T12:02:25.051Z,11149.00
2022-10-30T12:03:24.964Z,11366.00
2022-10-30T12:04:24.992Z,11008.00
2022-10-30T12:05:27.949Z,10446.00
2022-10-30T12:06:24.944Z,9956.00
2022-10-30T12:07:24.914Z,9749.00
2022-10-30T12:08:24.907Z,9826.00
2022-10-30T12:09:24.905Z,9377.00
2022-10-30T12:10:24.884Z,9627.00
2022-10-30T12:11:24.883Z,10938.00
2022-10-30T12:12:24.870Z,10314.00
2022-10-30T12:13:24.876Z,11553.00
2022-10-30T12:14:24.851Z,10547.00
2022-10-30T12:15:24.870Z,9522.00
2022-10-30T12:16:24.813Z,10183.00
2022-10-30T12:17:24.807Z,8871.00
2022-10-30T12:18:24.885Z,9412.00
2022-10-30T12:19:24.804Z,9823.00
2022-10-30T12:20:27.806Z,11146.00
2022-10-30T12:21:24.785Z,12975.00
2022-10-30T12:22:24.761Z,9510.00
2022-10-30T12:23:24.740Z,11441.00
2022-10-30T12:24:24.743Z,10834.00
2022-10-30T12:25:24.755Z,10710.00
2022-10-30T12:26:24.723Z,10462.00
2022-10-30T12:27:24.725Z,10644.00
2022-10-30T12:28:24.705Z,10443.00
2022-10-30T12:29:36.427Z,9904.00
2022-10-30T12:30:25.683Z,8819.00
2022-10-30T12:31:24.677Z,11053.00
2022-10-30T12:32:24.665Z,10738.00
2022-10-30T12:33:24.651Z,11979.00
2022-10-30T12:34:24.638Z,10773.00
2022-10-30T12:35:27.624Z,12424.00
2022-10-30T12:36:24.635Z,12004.00
2022-10-30T12:37:24.602Z,10263.00
2022-10-30T12:38:24.606Z,10188.00
2022-10-30T12:39:24.614Z,9631.00